createdAt,value
2024-05-09T00:00:40.672Z,68.2361
2024-05-09T00:01:47.944Z,68.2554
2024-05-09T00:02:54.199Z,68.3226
2024-05-09T00:04:02.456Z,68.3427
2024-05-09T00:05:09.421Z,68.3628
2024-05-09T00:06:15.546Z,68.4034
2024-05-09T00:07:21.709Z,68.4236
2024-05-09T00:08:28.884Z,68.4300
2024-05-09T00:09:35.216Z,68.4363
2024-05-09T00:10:41.673Z,68.4491
2024-05-09T00:11:48.011Z,68.4554
2024-05-09T00:12:54.293Z,68.4750
2024-05-09T00:14:00.907Z,68.4747
2024-05-09T00:15:07.253Z,68.4876
2024-05-09T00:16:13.339Z,68.5004
2024-05-09T00:17:19.578Z,68.5064
2024-05-09T00:18:25.873Z,68.5261
2024-05-09T00:19:32.265Z,68.5123
2024-05-09T00:20:40.841Z,68.5187
2024-05-09T00:21:50.448Z,68.5115
2024-05-09T00:22:57.232Z,68.5381
2024-05-09T00:24:03.221Z,68.5310
2024-05-09T00:25:09.710Z,68.5167
2024-05-09T00:26:15.837Z,68.5089
2024-05-09T00:27:22.047Z,68.4875
2024-05-09T00:28:28.814Z,68.4794
2024-05-09T00:29:35.041Z,68.4782
2024-05-09T00:30:41.273Z,68.4637
2024-05-09T00:32:03.187Z,68.4694
2024-05-09T00:33:10.780Z,68.4681
2024-05-09T00:34:18.859Z,68.4800
2024-05-09T00:35:25.936Z,68.4650
2024-05-09T00:36:32.661Z,68.4703
2024-05-09T00:38:05.047Z,68.4756
2024-05-09T00:39:12.180Z,68.4871
2024-05-09T00:40:27.086Z,68.4920
2024-05-09T00:41:31.763Z,68.5104
2024-05-09T00:42:38.613Z,68.5220
2024-05-09T00:43:45.535Z,68.5338
2024-05-09T00:44:57.188Z,68.5460
2024-05-09T00:46:05.409Z,68.5717
2024-05-09T00:47:15.474Z,68.5973
2024-05-09T00:48:22.763Z,68.6163
2024-05-09T00:49:31.556Z,68.6358
2024-05-09T00:50:38.810Z,68.6755
2024-05-09T00:51:49.414Z,68.7019
2024-05-09T00:52:56.623Z,68.7420
2024-05-09T00:54:17.906Z,68.7487
2024-05-09T00:55:25.517Z,68.7896
2024-05-09T00:56:38.508Z,68.8234
2024-05-09T00:57:45.591Z,68.8509
2024-05-09T00:58:52.210Z,68.8718
2024-05-09T01:00:09.899Z,68.8723
2024-05-09T01:01:19.610Z,68.8932
2024-05-09T01:02:41.205Z,68.9004
2024-05-09T01:03:55.081Z,68.9418
2024-05-09T01:05:02.020Z,68.9427
2024-05-09T01:06:09.603Z,68.9435
2024-05-09T01:07:17.720Z,68.9785
2024-05-09T01:08:25.548Z,68.9864
2024-05-09T01:09:35.692Z,69.0152
2024-05-09T01:10:45.189Z,69.0305
2024-05-09T01:11:55.690Z,69.0392
2024-05-09T01:13:05.106Z,69.0415
2024-05-09T01:14:13.670Z,69.0638
2024-05-09T01:15:36.728Z,69.0659
2024-05-09T01:16:44.728Z,69.0684
2024-05-09T01:18:06.646Z,69.0842
2024-05-09T01:20:41.677Z,69.1038
2024-05-09T01:21:49.958Z,69.1203
2024-05-09T01:23:00.022Z,69.1092
2024-05-09T01:24:10.414Z,69.1252
2024-05-09T01:25:24.028Z,69.1343
2024-05-09T01:26:32.195Z,69.1227
2024-05-09T01:27:41.202Z,69.1383
2024-05-09T01:28:49.185Z,69.1197
2024-05-09T01:32:19.649Z,69.1414
2024-05-09T01:32:19.649Z,69.1498
2024-05-09T01:33:26.567Z,69.1243
2024-05-09T01:34:36.052Z,69.1389
2024-05-09T01:35:43.636Z,69.1536
2024-05-09T01:39:11.727Z,69.1613
2024-05-09T01:39:11.727Z,69.1692
2024-05-09T01:43:27.820Z,69.1842
2024-05-09T01:43:27.820Z,69.1789
2024-05-09T01:44:42.551Z,69.1940
2024-05-09T01:45:50.686Z,69.2089
2024-05-09T01:47:28.193Z,69.1828
2024-05-09T01:51:20.006Z,69.1835
2024-05-09T01:51:20.006Z,69.1913
2024-05-09T01:52:29.705Z,69.2058
2024-05-09T01:53:40.593Z,69.2063
2024-05-09T01:55:40.583Z,69.2272
2024-05-09T02:04:39.678Z,69.2549
2024-05-09T02:04:39.678Z,69.2286
2024-05-09T02:06:25.931Z,69.2851
2024-05-09T02:07:31.911Z,69.2994
2024-05-09T02:08:50.123Z,69.3004
2024-05-09T02:10:00.264Z,69.2944
2024-05-09T02:11:06.976Z,69.3220
2024-05-09T02:12:13.689Z,69.3158
2024-05-09T02:13:25.341Z,69.3163
2024-05-09T02:14:38.766Z,69.3169
2024-05-09T02:19:34.471Z,69.3335
2024-05-09T02:20:41.943Z,69.3345
2024-05-09T02:21:58.592Z,69.3351
2024-05-09T02:23:21.720Z,69.3288
2024-05-09T02:25:48.593Z,69.3363
2024-05-09T02:26:55.613Z,69.3367
2024-05-09T02:28:26.754Z,69.3367
2024-05-09T02:29:41.757Z,69.3300
2024-05-09T02:31:16.720Z,69.3366
2024-05-09T02:32:26.993Z,69.3502
2024-05-09T02:33:56.973Z,69.3637
2024-05-09T02:35:04.602Z,69.3638
2024-05-09T02:43:25.973Z,69.3840
2024-05-09T02:43:25.973Z,69.4042
2024-05-09T02:44:42.754Z,69.4108
2024-05-09T02:48:21.934Z,69.4241
2024-05-09T02:48:21.934Z,69.4240
2024-05-09T02:49:37.807Z,69.4441
2024-05-09T02:52:22.792Z,69.4370
2024-05-09T02:53:42.771Z,69.4504
2024-05-09T02:54:57.628Z,69.4570
2024-05-09T02:56:10.823Z,69.4632
2024-05-09T02:57:52.771Z,69.4698
2024-05-09T03:03:50.460Z,69.4830
2024-05-09T03:03:50.460Z,69.4755
2024-05-09T03:05:02.837Z,69.4947
2024-05-09T03:08:38.977Z,69.4876
2024-05-09T03:08:38.977Z,69.4941
2024-05-09T03:09:59.099Z,69.5004
2024-05-09T03:13:23.131Z,69.5139
2024-05-09T03:13:23.131Z,69.5271
2024-05-09T03:19:44.481Z,69.4931
2024-05-09T03:19:44.481Z,69.5131
2024-05-09T03:21:07.366Z,69.5395
2024-05-09T03:23:05.799Z,69.5595
2024-05-09T03:26:39.721Z,69.5726
2024-05-09T03:26:39.721Z,69.5996
2024-05-09T03:28:10.271Z,69.6062
2024-05-09T03:30:15.452Z,69.6197
2024-05-09T03:31:26.275Z,69.6063
2024-05-09T03:32:59.316Z,69.6337
2024-05-09T03:37:38.079Z,69.6477
2024-05-09T03:37:38.079Z,69.6550
2024-05-09T03:41:30.498Z,69.6622
2024-05-09T03:41:30.498Z,69.6759
2024-05-09T03:52:51.967Z,69.6830
2024-05-09T03:52:51.967Z,69.7171
2024-05-09T03:54:24.210Z,69.7932
2024-05-09T03:55:45.915Z,69.7800
2024-05-09T03:58:04.904Z,69.7872
2024-05-09T03:59:32.839Z,69.7877
2024-05-09T04:01:14.384Z,69.8090
2024-05-09T04:02:20.909Z,69.8233
2024-05-09T04:03:27.364Z,69.8173
2024-05-09T04:04:33.886Z,69.8385
2024-05-09T04:05:41.078Z,69.8322
2024-05-09T04:06:49.374Z,69.8394
2024-05-09T04:07:56.403Z,69.8605
2024-05-09T04:09:02.438Z,69.8474
2024-05-09T04:10:11.278Z,69.8412
2024-05-09T04:11:20.946Z,69.8419
2024-05-09T04:12:27.938Z,69.8423
2024-05-09T04:13:34.123Z,69.8561
2024-05-09T04:14:40.280Z,69.8634
2024-05-09T04:15:46.409Z,69.8638
2024-05-09T04:16:52.517Z,69.8983
2024-05-09T04:17:58.847Z,69.8917
2024-05-09T04:19:05.053Z,69.9054
2024-05-09T04:20:21.059Z,69.9325
2024-05-09T04:21:23.134Z,69.9259
2024-05-09T04:22:29.082Z,69.9125
2024-05-09T04:23:35.875Z,69.9194
2024-05-09T04:24:43.118Z,69.9263
2024-05-09T04:25:50.052Z,69.9534
2024-05-09T04:27:11.069Z,69.9600
2024-05-09T04:28:17.109Z,69.9664
2024-05-09T04:29:23.354Z,69.9935
2024-05-09T04:30:36.758Z,70.0073
2024-05-09T04:31:41.448Z,70.0074
2024-05-09T04:32:47.740Z,70.0076
2024-05-09T04:33:53.956Z,70.0148
2024-05-09T04:35:00.240Z,70.0152
2024-05-09T04:36:06.438Z,70.0362
2024-05-09T04:37:13.357Z,70.0438
2024-05-09T04:38:20.449Z,70.0378
2024-05-09T04:39:26.639Z,70.0384
2024-05-09T04:40:36.071Z,70.0393
2024-05-09T04:41:43.700Z,70.0469
2024-05-09T04:42:50.399Z,70.0545
2024-05-09T04:43:56.629Z,70.0555
2024-05-09T04:45:02.776Z,70.0500
2024-05-09T04:46:08.821Z,70.0510
2024-05-09T04:47:15.876Z,70.0521
2024-05-09T04:48:22.220Z,70.0534
2024-05-09T04:49:28.612Z,70.0612
2024-05-09T04:50:38.190Z,70.1100
2024-05-09T04:51:47.441Z,70.2197
2024-05-09T04:52:53.568Z,70.2071
2024-05-09T04:53:59.765Z,70.1672
2024-05-09T04:55:05.938Z,70.1616
2024-05-09T04:56:12.127Z,70.1627
2024-05-09T04:57:18.203Z,70.1639
2024-05-09T04:58:24.476Z,70.1787
2024-05-09T04:59:30.599Z,70.2000
2024-05-09T05:00:38.302Z,70.1805
2024-05-09T05:01:45.806Z,70.1886
2024-05-09T05:02:52.195Z,70.1831
2024-05-09T05:03:58.646Z,70.1706
2024-05-09T05:05:05.040Z,70.1516
2024-05-09T05:06:13.884Z,70.1531
2024-05-09T05:07:20.042Z,70.1545
2024-05-09T05:08:26.130Z,70.1357
2024-05-09T05:09:32.338Z,70.1240
2024-05-09T05:10:38.492Z,70.1322
2024-05-09T05:11:44.654Z,70.1334
2024-05-09T05:12:51.436Z,70.1205
2024-05-09T05:13:57.527Z,70.1353
2024-05-09T05:15:03.774Z,70.1297
2024-05-09T05:16:10.174Z,70.1238
2024-05-09T05:17:16.804Z,70.1247
2024-05-09T05:18:24.051Z,70.1257
2024-05-09T05:19:31.254Z,70.1135
2024-05-09T05:20:37.954Z,70.1282
2024-05-09T05:21:44.061Z,70.1229
2024-05-09T05:22:51.034Z,70.1244
2024-05-09T05:23:57.125Z,70.1192
2024-05-09T05:25:03.110Z,70.1347
2024-05-09T05:26:09.172Z,70.1165
2024-05-09T05:27:15.355Z,70.1184
2024-05-09T05:28:21.532Z,70.1136
2024-05-09T05:29:27.853Z,70.1015
2024-05-09T05:30:35.015Z,70.0761
2024-05-09T05:31:41.622Z,70.0909
2024-05-09T05:32:47.908Z,70.0786
2024-05-09T05:33:54.183Z,70.0932
2024-05-09T05:35:00.341Z,70.1079
2024-05-09T05:36:06.488Z,70.0818
2024-05-09T05:37:12.568Z,70.0964
2024-05-09T05:38:19.159Z,70.1041
2024-05-09T05:39:28.827Z,70.0983
2024-05-09T05:40:37.562Z,70.0930
2024-05-09T05:41:45.093Z,70.0944
2024-05-09T05:42:51.174Z,70.1098
2024-05-09T05:43:57.331Z,70.0984
2024-05-09T05:45:05.089Z,70.0938
2024-05-09T05:46:12.866Z,70.0759
2024-05-09T05:47:22.108Z,70.0715
2024-05-09T05:48:31.012Z,70.0741
2024-05-09T05:49:37.894Z,70.0562
2024-05-09T05:50:46.006Z,70.0717
2024-05-09T05:51:52.391Z,70.0596
2024-05-09T05:52:58.676Z,70.0676
2024-05-09T05:54:04.887Z,70.0684
2024-05-09T05:55:11.034Z,70.0620
2024-05-09T05:56:17.215Z,70.0692
2024-05-09T05:57:23.348Z,70.0969
2024-05-09T05:58:29.495Z,70.0979
2024-05-09T05:59:36.442Z,70.0852
2024-05-09T06:00:43.423Z,70.0929
2024-05-09T06:01:49.608Z,70.0940
2024-05-09T06:02:55.839Z,70.0949
2024-05-09T06:04:01.918Z,70.0891
2024-05-09T06:05:08.218Z,70.0898
2024-05-09T06:06:14.479Z,70.0905
2024-05-09T06:07:21.433Z,70.1050
2024-05-09T06:08:30.144Z,70.1265
2024-05-09T06:09:36.958Z,70.1413
2024-05-09T06:10:43.122Z,70.1227
2024-05-09T06:11:49.472Z,70.1385
2024-05-09T06:12:55.555Z,70.1137
2024-05-09T06:14:01.673Z,70.1026
2024-05-09T06:15:07.704Z,70.1122
2024-05-09T06:16:13.811Z,70.1082
2024-05-09T06:17:20.038Z,70.0766
2024-05-09T06:18:26.649Z,70.0729
2024-05-09T06:19:33.205Z,70.0491
2024-05-09T06:20:39.978Z,70.0595
2024-05-09T06:21:48.451Z,70.0566
2024-05-09T06:22:55.183Z,70.0403
2024-05-09T06:24:10.576Z,70.0315
2024-05-09T06:25:39.344Z,70.0092
2024-05-09T06:26:46.042Z,69.9808
2024-05-09T06:27:52.137Z,69.9865
2024-05-09T06:28:58.334Z,69.9923
2024-05-09T06:30:05.201Z,69.9779
2024-05-09T06:31:11.483Z,69.9772
2024-05-09T06:32:18.108Z,69.9633
2024-05-09T06:33:24.610Z,69.9296
2024-05-09T06:34:30.902Z,69.9235
2024-05-09T06:35:40.203Z,69.8632
2024-05-09T06:36:46.600Z,69.8571
2024-05-09T06:37:52.828Z,69.8241
2024-05-09T06:38:58.962Z,69.7973
2024-05-09T06:40:10.069Z,69.7776
2024-05-09T06:41:17.069Z,69.7380
2024-05-09T06:42:23.682Z,69.7121
2024-05-09T06:43:29.894Z,69.6717
2024-05-09T06:44:36.093Z,69.6513
2024-05-09T06:45:42.391Z,69.6572
2024-05-09T06:46:48.563Z,69.6288
2024-05-09T06:48:01.605Z,69.6136
2024-05-09T06:49:09.309Z,69.6053
2024-05-09T06:50:23.912Z,69.5703
2024-05-09T06:51:33.567Z,69.5497
2024-05-09T06:52:43.235Z,69.5300
2024-05-09T06:53:49.636Z,69.4846
2024-05-09T06:54:57.058Z,69.4528
2024-05-09T06:56:26.259Z,69.4670
2024-05-09T06:58:05.378Z,69.4459
2024-05-09T06:59:11.913Z,69.4235
2024-05-09T07:00:26.801Z,69.4269
2024-05-09T07:01:31.063Z,69.4227
2024-05-09T07:02:37.723Z,69.4109
2024-05-09T07:03:45.268Z,69.3988
2024-05-09T07:04:54.763Z,69.3933
2024-05-09T07:06:04.483Z,69.3877
2024-05-09T07:09:06.093Z,69.3753
2024-05-09T07:09:06.093Z,69.3557
2024-05-09T07:10:18.063Z,69.3288
2024-05-09T07:11:31.593Z,69.3361
2024-05-09T07:12:40.747Z,69.3291
2024-05-09T07:13:49.513Z,69.3284
2024-05-09T07:14:55.701Z,69.3474
2024-05-09T07:16:04.759Z,69.3255
2024-05-09T07:17:11.504Z,69.3309
2024-05-09T07:18:19.916Z,69.3225
2024-05-09T07:19:27.034Z,69.3218
2024-05-09T07:20:34.977Z,69.3139
2024-05-09T07:21:45.069Z,69.3196
2024-05-09T07:22:53.933Z,69.3183
2024-05-09T07:24:03.294Z,69.3107
2024-05-09T07:25:10.783Z,69.3179
2024-05-09T07:26:18.818Z,69.2921
2024-05-09T07:27:26.685Z,69.2672
2024-05-09T07:28:33.203Z,69.2358
2024-05-09T07:29:40.089Z,69.2259
2024-05-09T07:30:47.524Z,69.2039
2024-05-09T07:31:53.684Z,69.1695
2024-05-09T07:33:00.720Z,69.1625
2024-05-09T07:34:07.389Z,69.1218
2024-05-09T07:35:15.816Z,69.0815
2024-05-09T07:36:22.546Z,69.0476
2024-05-09T07:37:29.390Z,69.0201
2024-05-09T07:38:36.669Z,68.9865
2024-05-09T07:39:43.364Z,68.9455
2024-05-09T07:40:49.748Z,68.9511
2024-05-09T07:41:56.584Z,68.9350
2024-05-09T07:43:03.104Z,68.9111
2024-05-09T07:44:09.377Z,68.8866
2024-05-09T07:45:38.960Z,68.8750
2024-05-09T07:47:36.441Z,68.8572
2024-05-09T07:49:11.994Z,68.8267
2024-05-09T07:50:35.274Z,68.8161
2024-05-09T07:52:22.652Z,68.7915
2024-05-09T07:53:32.469Z,68.7546
2024-05-09T07:53:44.763Z,68.7427
2024-05-09T07:54:53.218Z,68.7442
2024-05-09T07:55:59.645Z,68.7385
2024-05-09T07:57:05.957Z,68.7184
2024-05-09T07:58:12.166Z,68.7245
2024-05-09T07:59:18.448Z,68.7309
2024-05-09T08:00:30.850Z,68.7311
2024-05-09T08:01:38.107Z,68.7525
2024-05-09T08:02:45.936Z,68.7403
2024-05-09T08:03:52.712Z,68.7220
2024-05-09T08:04:59.712Z,68.6973
2024-05-09T08:06:05.952Z,68.5641
2024-05-09T08:07:12.283Z,68.5454
2024-05-09T08:08:18.547Z,68.5404
2024-05-09T08:09:24.942Z,68.5363
2024-05-09T08:10:31.136Z,68.5268
2024-05-09T08:11:37.791Z,68.4970
2024-05-09T08:12:44.208Z,68.4397
2024-05-09T08:13:50.473Z,68.3885
2024-05-09T08:14:56.911Z,68.3708
2024-05-09T08:16:03.613Z,68.3673
2024-05-09T08:17:10.643Z,68.3642
2024-05-09T08:18:17.300Z,68.3406
2024-05-09T08:19:24.557Z,68.3231
2024-05-09T08:20:33.909Z,68.3189
2024-05-09T08:21:43.308Z,68.3289
2024-05-09T08:22:49.738Z,68.3192
2024-05-09T08:23:56.083Z,68.3158
2024-05-09T08:25:02.479Z,68.2916
2024-05-09T08:26:08.748Z,68.2938
2024-05-09T08:27:15.065Z,68.3023
2024-05-09T08:28:21.349Z,68.2689
2024-05-09T08:29:27.630Z,68.2680
2024-05-09T08:30:37.174Z,68.2732
2024-05-09T08:31:44.928Z,68.2981
2024-05-09T08:32:51.162Z,68.3027
2024-05-09T08:33:57.683Z,68.3209
2024-05-09T08:35:04.223Z,68.3270
2024-05-09T08:36:25.078Z,68.3200
2024-05-09T08:37:36.632Z,68.3272
2024-05-09T08:38:43.431Z,68.3205
2024-05-09T08:39:49.768Z,68.3130
2024-05-09T08:40:55.963Z,68.3191
2024-05-09T08:42:02.110Z,68.3052
2024-05-09T08:43:08.606Z,68.2990
2024-05-09T08:44:15.382Z,68.3073
2024-05-09T08:45:21.452Z,68.2957
2024-05-09T08:46:27.690Z,68.2777
2024-05-09T08:47:34.144Z,68.2882
2024-05-09T08:48:40.642Z,68.2732
2024-05-09T08:49:47.677Z,68.2601
2024-05-09T08:50:54.021Z,68.2007
2024-05-09T08:52:00.262Z,68.1688
2024-05-09T08:53:06.599Z,68.1103
2024-05-09T08:54:12.601Z,68.0520
2024-05-09T08:55:18.836Z,67.9807
2024-05-09T08:56:26.087Z,67.9228
2024-05-09T08:57:32.434Z,67.8647
2024-05-09T08:58:38.510Z,67.8138
2024-05-09T08:59:44.624Z,67.7486
2024-05-09T09:00:50.961Z,67.6834
2024-05-09T09:01:57.687Z,67.6173
2024-05-09T09:03:03.946Z,67.5906
2024-05-09T09:04:10.444Z,67.5566
2024-05-09T09:05:16.998Z,67.5153
2024-05-09T09:06:23.285Z,67.4930
2024-05-09T09:07:29.915Z,67.4699
2024-05-09T09:08:36.061Z,67.4391
2024-05-09T09:09:42.269Z,67.4200
2024-05-09T09:10:48.555Z,67.3788
2024-05-09T09:11:54.782Z,67.3838
2024-05-09T09:13:00.988Z,67.3744
2024-05-09T09:14:07.147Z,67.3777
2024-05-09T09:15:13.553Z,67.3602
2024-05-09T09:16:22.709Z,67.3561
2024-05-09T09:17:29.270Z,67.3314
2024-05-09T09:18:35.589Z,67.3204
2024-05-09T09:19:41.916Z,67.3509
2024-05-09T09:20:48.956Z,67.3419
2024-05-09T09:21:56.022Z,67.3548
2024-05-09T09:23:02.585Z,67.3554
2024-05-09T09:24:09.973Z,67.3377
2024-05-09T09:25:16.373Z,67.3137
2024-05-09T09:26:22.735Z,67.2767
2024-05-09T09:27:29.195Z,67.2330
2024-05-09T09:28:35.284Z,67.1894
2024-05-09T09:29:41.518Z,67.1539
2024-05-09T09:30:47.876Z,67.1134
2024-05-09T09:31:56.702Z,67.0554
2024-05-09T09:33:03.353Z,66.9732
2024-05-09T09:34:09.894Z,66.9060
2024-05-09T09:35:16.147Z,66.8187
2024-05-09T09:36:22.558Z,66.7578
2024-05-09T09:37:29.121Z,66.7161
2024-05-09T09:38:35.831Z,66.6728
2024-05-09T09:39:42.098Z,66.6609
2024-05-09T09:40:50.097Z,66.6676
2024-05-09T09:41:56.565Z,66.6461
2024-05-09T09:43:02.817Z,66.6570
2024-05-09T09:44:09.516Z,66.6604
2024-05-09T09:45:15.643Z,66.6774
2024-05-09T09:46:21.813Z,66.6822
2024-05-09T09:47:28.048Z,66.6678
2024-05-09T09:48:34.685Z,66.6145
2024-05-09T09:49:41.464Z,66.5756
2024-05-09T09:50:48.030Z,66.5301
2024-05-09T09:51:54.478Z,66.4842
2024-05-09T09:53:00.828Z,66.4314
2024-05-09T09:54:07.179Z,66.4116
2024-05-09T09:55:14.193Z,66.3641
2024-05-09T09:56:20.351Z,66.3296
2024-05-09T09:57:26.760Z,66.2965
2024-05-09T09:58:32.846Z,66.2393
2024-05-09T09:59:38.887Z,66.1645
2024-05-09T10:00:46.307Z,66.0442
2024-05-09T10:01:52.888Z,65.8704
2024-05-09T10:02:59.562Z,65.7769
2024-05-09T10:04:07.416Z,65.6835
2024-05-09T10:05:13.952Z,65.4960
2024-05-09T10:06:20.420Z,65.4152
2024-05-09T10:07:26.663Z,65.3543
2024-05-09T10:08:33.173Z,65.1386
2024-05-09T10:09:39.415Z,64.9679
2024-05-09T10:10:46.325Z,64.7824
2024-05-09T10:11:59.701Z,64.6769
2024-05-09T10:13:05.911Z,64.5866
2024-05-09T10:14:12.577Z,64.5039
2024-05-09T10:15:18.961Z,64.4221
2024-05-09T10:16:25.722Z,64.3473
2024-05-09T10:17:32.772Z,64.2071
2024-05-09T10:18:39.553Z,64.1463
2024-05-09T10:19:46.259Z,64.0648
2024-05-09T10:20:52.626Z,63.9821
2024-05-09T10:21:58.924Z,63.9249
2024-05-09T10:23:20.215Z,63.8549
2024-05-09T10:24:26.546Z,63.7793
2024-05-09T10:25:32.823Z,63.7042
2024-05-09T10:26:39.099Z,63.6764
2024-05-09T10:27:45.435Z,63.6234
2024-05-09T10:28:51.601Z,63.5456
2024-05-09T10:29:57.829Z,63.4824
2024-05-09T10:31:04.077Z,63.3806
2024-05-09T10:32:10.474Z,63.1720
2024-05-09T10:33:16.665Z,63.0483
2024-05-09T10:34:23.364Z,62.9165
2024-05-09T10:35:29.450Z,62.8559
2024-05-09T10:36:35.770Z,62.7940
2024-05-09T10:37:41.939Z,62.7509
2024-05-09T10:38:48.200Z,62.6801
2024-05-09T10:39:54.474Z,62.5869
2024-05-09T10:41:00.637Z,62.4502
2024-05-09T10:42:07.140Z,62.3624
2024-05-09T10:43:13.348Z,62.2782
2024-05-09T10:44:19.569Z,61.9598
2024-05-09T10:45:25.636Z,61.9488
2024-05-09T10:46:32.057Z,62.0351
2024-05-09T10:47:39.264Z,62.1546
2024-05-09T10:48:45.640Z,62.2618
2024-05-09T10:49:52.674Z,62.3709
2024-05-09T10:50:59.167Z,62.4482
2024-05-09T10:52:05.255Z,62.4930
2024-05-09T10:53:11.451Z,62.2676
2024-05-09T10:54:20.531Z,62.2065
2024-05-09T10:55:26.870Z,62.1333
2024-05-09T10:56:33.141Z,61.6599
2024-05-09T10:57:39.574Z,61.5502
2024-05-09T10:58:45.676Z,61.4550
2024-05-09T10:59:54.641Z,61.4877
2024-05-09T11:01:05.462Z,61.4455
2024-05-09T11:02:14.014Z,61.4005
2024-05-09T11:03:20.851Z,61.3842
2024-05-09T11:04:27.058Z,61.3037
2024-05-09T11:05:33.477Z,61.1988
2024-05-09T11:06:40.408Z,61.1239
2024-05-09T11:07:47.189Z,61.0009
2024-05-09T11:08:53.331Z,60.8416
2024-05-09T11:10:00.104Z,60.6238
2024-05-09T11:11:08.233Z,60.4643
2024-05-09T11:12:15.786Z,60.3741
2024-05-09T11:13:22.420Z,60.2807
2024-05-09T11:14:29.779Z,60.2235
2024-05-09T11:15:36.395Z,60.0518
2024-05-09T11:17:11.317Z,59.4736
2024-05-09T11:18:15.947Z,59.6085
2024-05-09T11:19:20.992Z,59.4534
2024-05-09T11:20:29.739Z,59.4640
2024-05-09T11:21:34.685Z,59.4740
2024-05-09T11:22:38.815Z,59.4543
2024-05-09T11:23:43.321Z,59.5124
2024-05-09T11:24:48.299Z,59.4366
2024-05-09T11:25:52.470Z,59.1967
2024-05-09T11:26:56.538Z,58.9609
2024-05-09T11:28:00.687Z,58.7400
2024-05-09T11:29:05.816Z,58.6230
2024-05-09T11:30:14.457Z,58.5389
2024-05-09T11:31:20.043Z,58.4829
2024-05-09T11:32:24.260Z,58.4609
2024-05-09T11:33:28.912Z,58.4915
2024-05-09T11:34:35.238Z,58.6208
2024-05-09T11:35:39.368Z,58.7023
2024-05-09T11:36:43.579Z,58.5283
2024-05-09T11:37:47.769Z,58.2408
2024-05-09T11:38:52.364Z,57.3562
2024-05-09T11:39:56.628Z,57.3859
2024-05-09T11:41:00.925Z,57.1561
2024-05-09T11:42:05.829Z,57.1326
2024-05-09T11:43:10.127Z,57.1683
2024-05-09T11:44:14.425Z,57.3875
2024-05-09T11:45:18.511Z,57.5266
2024-05-09T11:46:23.510Z,57.3977
2024-05-09T11:47:27.511Z,57.4391
2024-05-09T11:48:31.801Z,57.3409
2024-05-09T11:49:36.190Z,56.9789
2024-05-09T11:50:40.203Z,56.9316
2024-05-09T11:51:44.396Z,56.9995
2024-05-09T11:52:48.466Z,57.0090
2024-05-09T11:53:52.711Z,57.0376
2024-05-09T11:54:56.838Z,56.6340
2024-05-09T11:56:01.065Z,56.2482
2024-05-09T11:57:05.324Z,56.2184
2024-05-09T11:58:09.549Z,56.4112
2024-05-09T11:59:13.719Z,56.6676
2024-05-09T12:00:25.214Z,56.9439
2024-05-09T12:01:28.346Z,57.1638
2024-05-09T12:02:33.083Z,57.3344
2024-05-09T12:03:37.546Z,57.4943
2024-05-09T12:04:41.921Z,57.5916
2024-05-09T12:05:46.447Z,57.6776
2024-05-09T12:06:50.784Z,57.7589
2024-05-09T12:07:56.056Z,57.8289
2024-05-09T12:09:00.240Z,57.8561
2024-05-09T12:10:06.059Z,57.8917
2024-05-09T12:11:14.905Z,57.8224
2024-05-09T12:12:19.060Z,57.7200
2024-05-09T12:13:23.341Z,57.6074
2024-05-09T12:14:27.617Z,57.4952
2024-05-09T12:15:31.924Z,57.3499
2024-05-09T12:16:36.322Z,57.2750
2024-05-09T12:17:40.600Z,57.2006
2024-05-09T12:18:45.620Z,57.0934
2024-05-09T12:19:49.908Z,57.0178
2024-05-09T12:20:54.129Z,56.8561
2024-05-09T12:21:58.454Z,56.7496
2024-05-09T12:23:02.616Z,56.6918
2024-05-09T12:24:06.855Z,56.6126
2024-05-09T12:25:11.889Z,56.4479
2024-05-09T12:26:16.130Z,56.3394
2024-05-09T12:27:21.316Z,56.2110
2024-05-09T12:28:25.642Z,56.0824
2024-05-09T12:29:30.022Z,55.8776
2024-05-09T12:30:38.062Z,55.5776
2024-05-09T12:31:44.504Z,55.4522
2024-05-09T12:32:48.952Z,55.3085
2024-05-09T12:33:53.323Z,55.2571
2024-05-09T12:34:57.764Z,55.1949
2024-05-09T12:36:02.015Z,54.8506
2024-05-09T12:37:06.218Z,54.5244
2024-05-09T12:38:11.265Z,54.2061
2024-05-09T12:39:15.548Z,53.8853
2024-05-09T12:40:31.831Z,53.6925
2024-05-09T12:41:59.919Z,53.4748
2024-05-09T12:43:09.997Z,53.4055
2024-05-09T12:44:18.058Z,53.3617
2024-05-09T12:45:23.274Z,53.4189
2024-05-09T12:46:36.802Z,53.4839
2024-05-09T12:47:50.557Z,53.5467
2024-05-09T12:49:07.336Z,53.6097
2024-05-09T12:50:29.876Z,53.4447
2024-05-09T12:51:32.345Z,53.3290
2024-05-09T12:52:39.299Z,53.0953
2024-05-09T12:54:04.169Z,52.8246
2024-05-09T12:55:16.614Z,52.6866
2024-05-09T12:56:30.315Z,52.5328
2024-05-09T12:57:44.816Z,52.6745
2024-05-09T12:58:59.080Z,52.9187
2024-05-09T13:00:14.176Z,52.6352
2024-05-09T13:01:24.178Z,52.2539
2024-05-09T13:02:34.052Z,52.1136
2024-05-09T13:03:45.989Z,51.8291
2024-05-09T13:05:07.809Z,51.9647
2024-05-09T13:06:12.133Z,52.2321
2024-05-09T13:07:18.941Z,52.3432
2024-05-09T13:08:23.271Z,52.5491
2024-05-09T13:09:28.914Z,52.6800
2024-05-09T13:10:33.768Z,52.8436
2024-05-09T13:11:38.514Z,53.0148
2024-05-09T13:12:44.667Z,53.1251
2024-05-09T13:13:49.286Z,53.2053
2024-05-09T13:14:55.024Z,53.2689
2024-05-09T13:16:00.430Z,53.3031
2024-05-09T13:17:04.519Z,53.2383
2024-05-09T13:18:10.491Z,53.2276
2024-05-09T13:19:15.500Z,53.0992
2024-05-09T13:20:29.118Z,52.6619
2024-05-09T13:21:30.648Z,52.0809
2024-05-09T13:22:34.830Z,51.7722
2024-05-09T13:23:39.450Z,51.5893
2024-05-09T13:24:43.867Z,51.5336
2024-05-09T13:25:48.424Z,51.5508
2024-05-09T13:26:52.865Z,51.5684
2024-05-09T13:27:57.794Z,51.6833
2024-05-09T13:29:02.535Z,51.6847
2024-05-09T13:30:11.873Z,51.4364
2024-05-09T13:31:18.423Z,51.3481
2024-05-09T13:32:23.292Z,51.2962
2024-05-09T13:33:28.255Z,51.2059
2024-05-09T13:34:32.846Z,51.2142
2024-05-09T13:35:38.277Z,50.9249
2024-05-09T13:36:42.883Z,50.7212
2024-05-09T13:37:48.667Z,50.6966
2024-05-09T13:38:53.093Z,50.7143
2024-05-09T13:39:58.152Z,50.6815
2024-05-09T13:41:02.786Z,50.8046
2024-05-09T13:42:07.501Z,50.9144
2024-05-09T13:43:12.366Z,51.0282
2024-05-09T13:44:17.237Z,51.0664
2024-05-09T13:45:21.383Z,51.0867
2024-05-09T13:46:25.886Z,51.1914
2024-05-09T13:47:32.163Z,51.2315
2024-05-09T13:48:36.774Z,51.2243
2024-05-09T13:49:42.181Z,51.2425
2024-05-09T13:50:47.458Z,51.1456
2024-05-09T13:51:52.009Z,50.6192
2024-05-09T13:52:56.479Z,50.2824
2024-05-09T13:54:00.737Z,50.2171
2024-05-09T13:55:05.101Z,50.1566
2024-05-09T13:56:10.126Z,50.2261
2024-05-09T13:57:17.400Z,50.2893
2024-05-09T13:58:23.050Z,50.4401
2024-05-09T13:59:31.379Z,50.2046
2024-05-09T14:00:44.358Z,49.8628
2024-05-09T14:01:47.203Z,49.9058
2024-05-09T14:02:51.948Z,50.1002
2024-05-09T14:03:58.045Z,49.9486
2024-05-09T14:05:02.621Z,49.8245
2024-05-09T14:06:09.432Z,49.8852
2024-05-09T14:07:17.978Z,49.7875
2024-05-09T14:08:23.702Z,49.6415
2024-05-09T14:09:28.475Z,49.5400
2024-05-09T14:10:33.797Z,49.4960
2024-05-09T14:11:38.689Z,49.3228
2024-05-09T14:12:42.974Z,49.0375
2024-05-09T14:13:48.102Z,48.9733
2024-05-09T14:14:52.339Z,49.0741
2024-05-09T14:15:56.804Z,49.1849
2024-05-09T14:17:01.294Z,49.2627
2024-05-09T14:18:08.107Z,49.2457
2024-05-09T14:19:14.320Z,49.1091
2024-05-09T14:20:28.301Z,48.9463
2024-05-09T14:21:29.741Z,49.0792
2024-05-09T14:22:34.450Z,49.3309
2024-05-09T14:23:39.368Z,49.5227
2024-05-09T14:24:45.664Z,49.6865
2024-05-09T14:25:51.973Z,49.7914
2024-05-09T14:26:57.167Z,49.8623
2024-05-09T14:28:01.485Z,49.8299
2024-05-09T14:29:06.392Z,49.7631
2024-05-09T14:30:18.138Z,49.4877
2024-05-09T14:31:21.067Z,49.2505
2024-05-09T14:32:25.247Z,48.9443
2024-05-09T14:33:31.097Z,48.3462
2024-05-09T14:36:47.627Z,47.8408
2024-05-09T14:36:47.627Z,47.1854
2024-05-09T14:38:06.869Z,47.0313
2024-05-09T14:39:37.228Z,46.7467
2024-05-09T14:41:19.979Z,46.6784
2024-05-09T14:42:25.645Z,46.8544
2024-05-09T14:43:35.121Z,46.7735